BJY weather

Batajnica Air Base
Batajnica, Srem, Serbia

Public forecast

Using degrees Celsius for public forecast. Weather courtesy of forecast.io.

METAR (pilot weather report)

Retrieved 2019/09/21 11:30 UTC (27 minutes ago):

LYBT 211130Z 03005KT 320V100 CAVOK 19/01 Q1027 NOSIG

TAF (pilot weather forecast)

Retrieved 2019/09/21 06:00 UTC (6 hours ago):

TAF LYBE 210500Z 2106/2206 08007KT CAVOK TX21/2113Z TN05/2204Z= TAF LYBT 210500Z 2106/2206 04005KT CAVOK TX21/2113Z TN05/2204Z